GLO1751 SBVT-SBBR
Flight info
| Callsign | GLO1751 |
|---|---|
| Flight time | 1h 17m |
| Altitude | 34000 |
| Route | OPLOX UZ40 OPGOL |
| Aircraft | B738/M-SDE2E3FGHIRWXY/LB1 |
Departure
| Time | 2026-04-27 21:43 |
|---|---|
| Airport | Eurico de Aguiar Salles International Airport (SBVT) |
Arrival
| Time | 2026-04-27 23:00 |
|---|---|
| Airport | Presidente Juscelino Kubitschek International Airport (SBBR) |
| Time | Latitude | Longitude | Altitude | Speed | Heading |
|---|---|---|---|---|---|
| 2026-04-27 21:20 | -20.26534 | -40.28167 | 20 ft | 0 kts | 262° |
| 2026-04-27 21:37 | -20.26534 | -40.28164 | 20 ft | 2 kts | 262° |
| 2026-04-27 21:37 | -20.26531 | -40.28147 | 20 ft | 2 kts | 262° |
| 2026-04-27 21:37 | -20.26529 | -40.28129 | 23 ft | 2 kts | 262° |
| 2026-04-27 21:38 | -20.26527 | -40.28112 | 23 ft | 2 kts | 263° |
| 2026-04-27 21:38 | -20.26525 | -40.28094 | 23 ft | 2 kts | 263° |
| 2026-04-27 21:38 | -20.26523 | -40.28077 | 20 ft | 2 kts | 263° |
| 2026-04-27 21:38 | -20.26521 | -40.28059 | 20 ft | 2 kts | 255° |
| 2026-04-27 21:39 | -20.26513 | -40.28045 | 21 ft | 2 kts | 208° |
| 2026-04-27 21:39 | -20.26497 | -40.28040 | 23 ft | 2 kts | 181° |
| 2026-04-27 21:39 | -20.26484 | -40.28040 | 22 ft | 1 kts | 174° |
| 2026-04-27 21:39 | -20.26480 | -40.28041 | 22 ft | 0 kts | 173° |
| 2026-04-27 21:40 | -20.26489 | -40.28040 | 21 ft | 4 kts | 172° |
| 2026-04-27 21:40 | -20.26543 | -40.28032 | 20 ft | 11 kts | 172° |
| 2026-04-27 21:41 | -20.26615 | -40.27990 | 20 ft | 13 kts | 103° |
| 2026-04-27 21:41 | -20.26605 | -40.27887 | 18 ft | 15 kts | 80° |
| 2026-04-27 21:41 | -20.26525 | -40.27859 | 18 ft | 0 kts | 352° |
| 2026-04-27 21:42 | -20.26409 | -40.27876 | 19 ft | 53 kts | 352° |
| 2026-04-27 21:42 | -20.25773 | -40.27969 | 25 ft | 129 kts | 352° |
| 2026-04-27 21:42 | -20.24671 | -40.28139 | 118 ft | 185 kts | 354° |
| 2026-04-27 21:43 | -20.23358 | -40.28444 | 755 ft | 203 kts | 341° |
| 2026-04-27 21:43 | -20.22085 | -40.29277 | 1200 ft | 230 kts | 321° |
| 2026-04-27 21:43 | -20.21010 | -40.30614 | 1954 ft | 237 kts | 308° |
| 2026-04-27 21:43 | -20.20125 | -40.32170 | 2617 ft | 253 kts | 300° |
| 2026-04-27 21:44 | -20.19590 | -40.33291 | 3062 ft | 259 kts | 298° |
| 2026-04-27 21:44 | -20.18794 | -40.35035 | 3874 ft | 263 kts | 297° |
| 2026-04-27 21:44 | -20.17998 | -40.36783 | 4780 ft | 263 kts | 295° |
| 2026-04-27 21:44 | -20.17181 | -40.38559 | 5529 ft | 270 kts | 295° |
| 2026-04-27 21:45 | -20.16347 | -40.40355 | 6363 ft | 273 kts | 295° |
| 2026-04-27 21:45 | -20.15198 | -40.42799 | 7333 ft | 279 kts | 296° |
| 2026-04-27 21:45 | -20.14617 | -40.44029 | 7806 ft | 283 kts | 296° |
| 2026-04-27 21:45 | -20.13718 | -40.45923 | 8454 ft | 290 kts | 296° |
| 2026-04-27 21:46 | -20.12796 | -40.47859 | 9145 ft | 297 kts | 297° |
| 2026-04-27 21:46 | -20.11854 | -40.49831 | 9880 ft | 300 kts | 297° |
| 2026-04-27 21:46 | -20.10895 | -40.51836 | 10429 ft | 311 kts | 297° |
| 2026-04-27 21:46 | -20.09875 | -40.53967 | 10587 ft | 335 kts | 297° |
| 2026-04-27 21:47 | -20.08782 | -40.56243 | 10789 ft | 355 kts | 297° |
| 2026-04-27 21:47 | -20.07646 | -40.58609 | 11266 ft | 362 kts | 297° |
| 2026-04-27 21:47 | -20.06497 | -40.61001 | 11943 ft | 364 kts | 297° |
| 2026-04-27 21:47 | -20.05341 | -40.63406 | 12583 ft | 367 kts | 297° |
| 2026-04-27 21:48 | -20.04177 | -40.65828 | 13228 ft | 369 kts | 297° |
| 2026-04-27 21:48 | -20.03006 | -40.68262 | 13866 ft | 371 kts | 297° |
| 2026-04-27 21:48 | -20.01825 | -40.70715 | 14407 ft | 374 kts | 297° |
| 2026-04-27 21:48 | -20.00639 | -40.73179 | 14968 ft | 375 kts | 297° |
| 2026-04-27 21:49 | -19.99447 | -40.75654 | 15524 ft | 377 kts | 297° |
| 2026-04-27 21:49 | -19.98247 | -40.78144 | 16066 ft | 379 kts | 297° |
| 2026-04-27 21:49 | -19.97043 | -40.80642 | 16583 ft | 382 kts | 297° |
| 2026-04-27 21:49 | -19.95822 | -40.83173 | 17078 ft | 386 kts | 297° |
| 2026-04-27 21:50 | -19.94594 | -40.85718 | 17597 ft | 388 kts | 297° |
| 2026-04-27 21:50 | -19.93358 | -40.88280 | 18121 ft | 391 kts | 297° |
| 2026-04-27 21:50 | -19.92114 | -40.90856 | 18574 ft | 393 kts | 297° |
| 2026-04-27 21:50 | -19.90861 | -40.93452 | 18992 ft | 396 kts | 297° |
| 2026-04-27 21:51 | -19.89601 | -40.96061 | 19386 ft | 399 kts | 297° |
| 2026-04-27 21:51 | -19.88327 | -40.98697 | 19796 ft | 402 kts | 297° |
| 2026-04-27 21:51 | -19.87046 | -41.01343 | 20219 ft | 404 kts | 297° |
| 2026-04-27 21:51 | -19.85755 | -41.04002 | 20615 ft | 407 kts | 298° |
| 2026-04-27 21:52 | -19.84396 | -41.06650 | 20996 ft | 410 kts | 300° |
| 2026-04-27 21:52 | -19.82993 | -41.09290 | 21391 ft | 412 kts | 300° |
| 2026-04-27 21:52 | -19.81574 | -41.11945 | 21779 ft | 414 kts | 300° |
| 2026-04-27 21:52 | -19.80151 | -41.14619 | 22158 ft | 417 kts | 300° |
| 2026-04-27 21:53 | -19.78744 | -41.17277 | 22526 ft | 420 kts | 300° |
| 2026-04-27 21:53 | -19.77315 | -41.19989 | 22897 ft | 422 kts | 300° |
| 2026-04-27 21:53 | -19.75877 | -41.22719 | 23245 ft | 425 kts | 300° |
| 2026-04-27 21:53 | -19.74440 | -41.25465 | 23597 ft | 427 kts | 300° |
| 2026-04-27 21:54 | -19.72998 | -41.28236 | 23909 ft | 429 kts | 300° |
| 2026-04-27 21:54 | -19.71555 | -41.31011 | 24242 ft | 430 kts | 300° |
| 2026-04-27 21:54 | -19.70107 | -41.33793 | 24572 ft | 431 kts | 300° |
| 2026-04-27 21:54 | -19.68658 | -41.36576 | 24892 ft | 432 kts | 300° |
| 2026-04-27 21:55 | -19.67200 | -41.39370 | 25199 ft | 433 kts | 300° |
| 2026-04-27 21:55 | -19.65736 | -41.42172 | 25514 ft | 435 kts | 300° |
| 2026-04-27 21:55 | -19.64266 | -41.44978 | 25821 ft | 436 kts | 300° |
| 2026-04-27 21:55 | -19.62785 | -41.47792 | 26120 ft | 437 kts | 300° |
| 2026-04-27 21:56 | -19.61299 | -41.50609 | 26428 ft | 438 kts | 300° |
| 2026-04-27 21:56 | -19.58312 | -41.56268 | 27030 ft | 441 kts | 300° |
| 2026-04-27 21:56 | -19.56812 | -41.59111 | 27314 ft | 442 kts | 300° |
| 2026-04-27 21:57 | -19.55307 | -41.61961 | 27597 ft | 444 kts | 300° |
| 2026-04-27 21:57 | -19.53796 | -41.64823 | 27876 ft | 445 kts | 300° |
| 2026-04-27 21:57 | -19.52284 | -41.67685 | 28141 ft | 446 kts | 300° |
| 2026-04-27 21:57 | -19.50764 | -41.70562 | 28405 ft | 448 kts | 300° |
| 2026-04-27 21:58 | -19.49240 | -41.73445 | 28688 ft | 449 kts | 300° |
| 2026-04-27 21:58 | -19.47717 | -41.76326 | 29022 ft | 448 kts | 300° |
| 2026-04-27 21:58 | -19.46195 | -41.79201 | 29442 ft | 446 kts | 300° |
| 2026-04-27 21:58 | -19.44684 | -41.82055 | 29890 ft | 443 kts | 300° |
| 2026-04-27 21:59 | -19.43180 | -41.84897 | 30272 ft | 441 kts | 300° |
| 2026-04-27 21:59 | -19.41679 | -41.87728 | 30584 ft | 440 kts | 300° |
| 2026-04-27 21:59 | -19.40182 | -41.90553 | 30877 ft | 440 kts | 300° |
| 2026-04-27 21:59 | -19.38686 | -41.93380 | 31194 ft | 439 kts | 300° |
| 2026-04-27 22:00 | -19.37197 | -41.96198 | 31525 ft | 438 kts | 300° |
| 2026-04-27 22:00 | -19.35712 | -41.99007 | 31863 ft | 436 kts | 300° |
| 2026-04-27 22:00 | -19.34230 | -42.01807 | 32191 ft | 435 kts | 300° |
| 2026-04-27 22:00 | -19.32741 | -42.04590 | 32503 ft | 435 kts | 300° |
| 2026-04-27 22:01 | -19.31234 | -42.07309 | 32796 ft | 434 kts | 301° |
| 2026-04-27 22:01 | -19.29697 | -42.10053 | 33127 ft | 433 kts | 301° |
| 2026-04-27 22:01 | -19.28168 | -42.12793 | 33470 ft | 431 kts | 300° |
| 2026-04-27 22:01 | -19.26644 | -42.15526 | 33747 ft | 431 kts | 301° |
| 2026-04-27 22:02 | -19.25111 | -42.18252 | 34017 ft | 431 kts | 301° |
| 2026-04-27 22:02 | -19.22618 | -42.22663 | 34010 ft | 433 kts | 301° |
| 2026-04-27 22:03 | -19.19543 | -42.28105 | 34010 ft | 429 kts | 301° |
| 2026-04-27 22:03 | -19.16488 | -42.33511 | 34018 ft | 427 kts | 301° |
| 2026-04-27 22:04 | -19.13444 | -42.38895 | 34019 ft | 426 kts | 301° |
| 2026-04-27 22:04 | -19.10381 | -42.44308 | 34036 ft | 433 kts | 300° |
| 2026-04-27 22:05 | -19.07393 | -42.49919 | 34044 ft | 442 kts | 298° |
| 2026-04-27 22:05 | -19.04417 | -42.55694 | 34041 ft | 451 kts | 298° |
| 2026-04-27 22:06 | -19.01377 | -42.61545 | 34045 ft | 458 kts | 299° |
| 2026-04-27 22:06 | -18.98277 | -42.67465 | 34050 ft | 462 kts | 299° |
| 2026-04-27 22:07 | -18.95155 | -42.73418 | 34045 ft | 464 kts | 299° |
| 2026-04-27 22:07 | -18.92016 | -42.79385 | 34049 ft | 465 kts | 299° |
| 2026-04-27 22:08 | -18.88775 | -42.85278 | 34042 ft | 464 kts | 300° |
| 2026-04-27 22:08 | -18.85508 | -42.91152 | 34042 ft | 464 kts | 300° |
| 2026-04-27 22:09 | -18.82260 | -42.97030 | 34044 ft | 463 kts | 300° |
| 2026-04-27 22:09 | -18.79017 | -43.02904 | 34052 ft | 463 kts | 300° |
| 2026-04-27 22:10 | -18.75845 | -43.08752 | 34049 ft | 462 kts | 300° |
| 2026-04-27 22:10 | -18.72683 | -43.14655 | 34050 ft | 462 kts | 300° |
| 2026-04-27 22:11 | -18.69508 | -43.20560 | 34046 ft | 462 kts | 300° |
| 2026-04-27 22:11 | -18.66366 | -43.26475 | 34053 ft | 462 kts | 298° |
| 2026-04-27 22:12 | -18.63292 | -43.32426 | 34049 ft | 462 kts | 299° |
| 2026-04-27 22:12 | -18.60161 | -43.38346 | 34062 ft | 462 kts | 300° |
| 2026-04-27 22:13 | -18.56993 | -43.44246 | 34063 ft | 462 kts | 300° |
| 2026-04-27 22:13 | -18.53832 | -43.50151 | 34069 ft | 462 kts | 300° |
| 2026-04-27 22:14 | -18.50676 | -43.56055 | 34080 ft | 463 kts | 300° |
| 2026-04-27 22:14 | -18.47643 | -43.62036 | 34079 ft | 463 kts | 298° |
| 2026-04-27 22:15 | -18.44588 | -43.68005 | 34080 ft | 463 kts | 299° |
| 2026-04-27 22:15 | -18.41520 | -43.73919 | 34080 ft | 463 kts | 299° |
| 2026-04-27 22:16 | -18.38437 | -43.79876 | 34073 ft | 463 kts | 299° |
| 2026-04-27 22:16 | -18.35332 | -43.85882 | 34070 ft | 464 kts | 299° |
| 2026-04-27 22:17 | -18.32270 | -43.91801 | 34067 ft | 464 kts | 299° |
| 2026-04-27 22:17 | -18.29187 | -43.97762 | 34057 ft | 464 kts | 299° |
| 2026-04-27 22:18 | -18.26103 | -44.03723 | 34053 ft | 464 kts | 299° |
| 2026-04-27 22:18 | -18.23015 | -44.09684 | 34049 ft | 464 kts | 299° |
| 2026-04-27 22:19 | -18.19922 | -44.15650 | 34040 ft | 464 kts | 299° |
| 2026-04-27 22:19 | -18.16831 | -44.21607 | 34039 ft | 464 kts | 299° |
| 2026-04-27 22:20 | -18.13734 | -44.27569 | 34037 ft | 464 kts | 299° |
| 2026-04-27 22:20 | -18.10635 | -44.33530 | 34031 ft | 465 kts | 299° |
| 2026-04-27 22:21 | -18.07535 | -44.39489 | 34035 ft | 465 kts | 299° |
| 2026-04-27 22:21 | -18.04424 | -44.45443 | 34033 ft | 465 kts | 300° |
| 2026-04-27 22:22 | -18.01244 | -44.51367 | 34034 ft | 465 kts | 300° |
| 2026-04-27 22:22 | -17.98055 | -44.57281 | 34031 ft | 465 kts | 300° |
| 2026-04-27 22:23 | -17.94872 | -44.63201 | 34035 ft | 466 kts | 300° |
| 2026-04-27 22:23 | -17.91688 | -44.69126 | 34024 ft | 466 kts | 300° |
| 2026-04-27 22:24 | -17.88505 | -44.75045 | 34029 ft | 466 kts | 300° |
| 2026-04-27 22:24 | -17.85365 | -44.81005 | 34021 ft | 466 kts | 299° |
| 2026-04-27 22:25 | -17.82282 | -44.86991 | 34014 ft | 466 kts | 299° |
| 2026-04-27 22:25 | -17.79213 | -44.92931 | 34013 ft | 466 kts | 299° |
| 2026-04-27 22:26 | -17.76112 | -44.98907 | 34016 ft | 466 kts | 299° |
| 2026-04-27 22:26 | -17.73005 | -45.04882 | 34013 ft | 466 kts | 299° |
| 2026-04-27 22:27 | -17.69899 | -45.10854 | 34016 ft | 466 kts | 299° |
| 2026-04-27 22:27 | -17.66789 | -45.16823 | 34012 ft | 467 kts | 300° |
| 2026-04-27 22:28 | -17.63456 | -45.22649 | 34021 ft | 466 kts | 303° |
| 2026-04-27 22:28 | -17.59982 | -45.28393 | 34021 ft | 466 kts | 303° |
| 2026-04-27 22:29 | -17.56520 | -45.34143 | 34023 ft | 467 kts | 303° |
| 2026-04-27 22:29 | -17.53080 | -45.39912 | 34024 ft | 467 kts | 302° |
| 2026-04-27 22:30 | -17.49646 | -45.45685 | 34018 ft | 467 kts | 302° |
| 2026-04-27 22:30 | -17.46211 | -45.51454 | 34017 ft | 467 kts | 302° |
| 2026-04-27 22:31 | -17.42766 | -45.57232 | 34017 ft | 467 kts | 303° |
| 2026-04-27 22:31 | -17.39905 | -45.62025 | 34013 ft | 467 kts | 303° |
| 2026-04-27 22:32 | -17.36455 | -45.67802 | 34012 ft | 468 kts | 303° |
| 2026-04-27 22:32 | -17.33007 | -45.73573 | 34007 ft | 468 kts | 303° |
| 2026-04-27 22:33 | -17.29550 | -45.79349 | 34007 ft | 468 kts | 303° |
| 2026-04-27 22:33 | -17.26087 | -45.85114 | 34003 ft | 468 kts | 303° |
| 2026-04-27 22:34 | -17.22616 | -45.90884 | 34005 ft | 469 kts | 303° |
| 2026-04-27 22:34 | -17.19146 | -45.96651 | 34002 ft | 469 kts | 303° |
| 2026-04-27 22:35 | -17.15669 | -46.02427 | 34003 ft | 469 kts | 303° |
| 2026-04-27 22:35 | -17.12190 | -46.08202 | 34003 ft | 469 kts | 303° |
| 2026-04-27 22:36 | -17.08710 | -46.13974 | 34000 ft | 470 kts | 303° |
| 2026-04-27 22:36 | -17.05221 | -46.19756 | 34003 ft | 470 kts | 303° |
| 2026-04-27 22:37 | -17.01734 | -46.25528 | 33999 ft | 470 kts | 303° |
| 2026-04-27 22:37 | -16.98242 | -46.31305 | 33998 ft | 470 kts | 303° |
| 2026-04-27 22:38 | -16.94747 | -46.37082 | 33998 ft | 471 kts | 303° |
| 2026-04-27 22:38 | -16.91249 | -46.42860 | 33995 ft | 471 kts | 303° |
| 2026-04-27 22:39 | -16.87857 | -46.48537 | 33914 ft | 443 kts | 301° |
| 2026-04-27 22:39 | -16.86382 | -46.51289 | 33780 ft | 425 kts | 299° |
| 2026-04-27 22:39 | -16.85056 | -46.53887 | 33460 ft | 413 kts | 299° |
| 2026-04-27 22:39 | -16.83686 | -46.56610 | 32787 ft | 410 kts | 299° |
| 2026-04-27 22:40 | -16.82357 | -46.59249 | 32047 ft | 410 kts | 299° |
| 2026-04-27 22:40 | -16.81022 | -46.61877 | 31380 ft | 409 kts | 299° |
| 2026-04-27 22:40 | -16.79688 | -46.64481 | 30807 ft | 405 kts | 300° |
| 2026-04-27 22:40 | -16.78358 | -46.67062 | 30245 ft | 402 kts | 300° |
| 2026-04-27 22:41 | -16.77038 | -46.69614 | 29695 ft | 396 kts | 300° |
| 2026-04-27 22:41 | -16.75745 | -46.72111 | 29266 ft | 387 kts | 300° |
| 2026-04-27 22:41 | -16.74476 | -46.74555 | 28851 ft | 379 kts | 300° |
| 2026-04-27 22:41 | -16.73236 | -46.76945 | 28466 ft | 370 kts | 300° |
| 2026-04-27 22:42 | -16.72019 | -46.79287 | 28109 ft | 366 kts | 300° |
| 2026-04-27 22:42 | -16.70810 | -46.81613 | 27758 ft | 364 kts | 300° |
| 2026-04-27 22:42 | -16.69601 | -46.83936 | 27404 ft | 366 kts | 300° |
| 2026-04-27 22:42 | -16.68369 | -46.86303 | 27054 ft | 378 kts | 300° |
| 2026-04-27 22:43 | -16.67118 | -46.88706 | 26651 ft | 384 kts | 299° |
| 2026-04-27 22:43 | -16.65844 | -46.91153 | 26268 ft | 383 kts | 299° |
| 2026-04-27 22:43 | -16.64576 | -46.93589 | 25877 ft | 382 kts | 299° |
| 2026-04-27 22:43 | -16.63312 | -46.96020 | 25480 ft | 381 kts | 299° |
| 2026-04-27 22:44 | -16.62055 | -46.98439 | 25095 ft | 380 kts | 299° |
| 2026-04-27 22:44 | -16.60795 | -47.00858 | 24720 ft | 379 kts | 299° |
| 2026-04-27 22:44 | -16.59538 | -47.03269 | 24315 ft | 378 kts | 299° |
| 2026-04-27 22:44 | -16.58281 | -47.05677 | 23949 ft | 378 kts | 299° |
| 2026-04-27 22:45 | -16.57028 | -47.08078 | 23559 ft | 377 kts | 299° |
| 2026-04-27 22:45 | -16.55767 | -47.10485 | 23050 ft | 378 kts | 299° |
| 2026-04-27 22:45 | -16.54444 | -47.12857 | 22546 ft | 379 kts | 302° |
| 2026-04-27 22:45 | -16.52971 | -47.15128 | 22158 ft | 376 kts | 307° |
| 2026-04-27 22:46 | -16.51310 | -47.17209 | 21837 ft | 371 kts | 314° |
| 2026-04-27 22:46 | -16.49443 | -47.19042 | 21496 ft | 367 kts | 322° |
| 2026-04-27 22:46 | -16.47367 | -47.20580 | 21069 ft | 366 kts | 330° |
| 2026-04-27 22:46 | -16.45096 | -47.21778 | 20613 ft | 366 kts | 339° |
| 2026-04-27 22:47 | -16.42677 | -47.22586 | 20215 ft | 364 kts | 348° |
| 2026-04-27 22:47 | -16.40193 | -47.22961 | 19893 ft | 359 kts | 358° |
| 2026-04-27 22:47 | -16.37714 | -47.22890 | 19604 ft | 354 kts | 8° |
| 2026-04-27 22:47 | -16.35313 | -47.22374 | 19268 ft | 351 kts | 18° |
| 2026-04-27 22:48 | -16.33055 | -47.21430 | 18883 ft | 350 kts | 28° |
| 2026-04-27 22:48 | -16.30996 | -47.20080 | 18508 ft | 349 kts | 38° |
| 2026-04-27 22:48 | -16.29030 | -47.18727 | 18370 ft | 340 kts | 21° |
| 2026-04-27 22:48 | -16.26746 | -47.18304 | 18211 ft | 333 kts | 358° |
| 2026-04-27 22:49 | -16.24488 | -47.18766 | 17855 ft | 333 kts | 339° |
| 2026-04-27 22:49 | -16.22456 | -47.19915 | 17450 ft | 334 kts | 323° |
| 2026-04-27 22:49 | -16.20840 | -47.21652 | 17068 ft | 335 kts | 307° |
| 2026-04-27 22:49 | -16.19436 | -47.23575 | 16751 ft | 333 kts | 308° |
| 2026-04-27 22:50 | -16.18014 | -47.25468 | 16408 ft | 331 kts | 309° |
| 2026-04-27 22:50 | -16.16593 | -47.27349 | 16069 ft | 330 kts | 309° |
| 2026-04-27 22:50 | -16.15177 | -47.29223 | 15738 ft | 329 kts | 308° |
| 2026-04-27 22:50 | -16.13766 | -47.31092 | 15419 ft | 328 kts | 308° |
| 2026-04-27 22:51 | -16.12366 | -47.32949 | 15100 ft | 326 kts | 308° |
| 2026-04-27 22:51 | -16.10971 | -47.34804 | 14793 ft | 325 kts | 308° |
| 2026-04-27 22:51 | -16.09583 | -47.36651 | 14476 ft | 323 kts | 308° |
| 2026-04-27 22:51 | -16.08202 | -47.38489 | 14171 ft | 322 kts | 308° |
| 2026-04-27 22:52 | -16.06823 | -47.40325 | 13877 ft | 321 kts | 308° |
| 2026-04-27 22:52 | -16.05466 | -47.42129 | 13461 ft | 315 kts | 308° |
| 2026-04-27 22:52 | -16.04118 | -47.43920 | 12943 ft | 313 kts | 308° |
| 2026-04-27 22:52 | -16.02785 | -47.45693 | 12453 ft | 310 kts | 308° |
| 2026-04-27 22:53 | -16.01463 | -47.47451 | 12009 ft | 306 kts | 308° |
| 2026-04-27 22:53 | -16.00170 | -47.49170 | 11722 ft | 297 kts | 308° |
| 2026-04-27 22:53 | -15.98919 | -47.50833 | 11419 ft | 289 kts | 308° |
| 2026-04-27 22:53 | -15.97689 | -47.52468 | 11031 ft | 285 kts | 308° |
| 2026-04-27 22:54 | -15.96473 | -47.54084 | 10600 ft | 283 kts | 308° |
| 2026-04-27 22:54 | -15.95266 | -47.55687 | 10209 ft | 280 kts | 308° |
| 2026-04-27 22:54 | -15.94074 | -47.57270 | 9830 ft | 277 kts | 308° |
| 2026-04-27 22:54 | -15.92891 | -47.58841 | 9358 ft | 275 kts | 308° |
| 2026-04-27 22:55 | -15.91720 | -47.60397 | 8968 ft | 271 kts | 308° |
| 2026-04-27 22:55 | -15.90573 | -47.61920 | 8695 ft | 264 kts | 308° |
| 2026-04-27 22:55 | -15.89464 | -47.63392 | 8485 ft | 254 kts | 308° |
| 2026-04-27 22:55 | -15.88390 | -47.64816 | 8240 ft | 247 kts | 308° |
| 2026-04-27 22:56 | -15.87345 | -47.66202 | 7969 ft | 241 kts | 308° |
| 2026-04-27 22:56 | -15.86523 | -47.67695 | 7590 ft | 239 kts | 282° |
| 2026-04-27 22:56 | -15.86405 | -47.69401 | 7298 ft | 238 kts | 267° |
| 2026-04-27 22:56 | -15.86513 | -47.71121 | 7033 ft | 239 kts | 265° |
| 2026-04-27 22:57 | -15.86650 | -47.72848 | 6779 ft | 241 kts | 265° |
| 2026-04-27 22:57 | -15.86785 | -47.74580 | 6513 ft | 241 kts | 265° |
| 2026-04-27 22:57 | -15.86911 | -47.76312 | 6229 ft | 240 kts | 265° |
| 2026-04-27 22:57 | -15.87031 | -47.78043 | 5905 ft | 239 kts | 265° |
| 2026-04-27 22:58 | -15.87146 | -47.79750 | 5587 ft | 234 kts | 265° |
| 2026-04-27 22:58 | -15.87263 | -47.81398 | 5196 ft | 225 kts | 265° |
| 2026-04-27 22:58 | -15.87365 | -47.82981 | 4898 ft | 212 kts | 265° |
| 2026-04-27 22:58 | -15.87457 | -47.84439 | 4632 ft | 198 kts | 265° |
| 2026-04-27 22:59 | -15.87544 | -47.85823 | 4385 ft | 182 kts | 265° |
| 2026-04-27 22:59 | -15.87623 | -47.87057 | 4205 ft | 160 kts | 265° |
| 2026-04-27 22:59 | -15.87695 | -47.88191 | 3985 ft | 157 kts | 265° |
| 2026-04-27 22:59 | -15.87767 | -47.89324 | 3801 ft | 157 kts | 265° |
| 2026-04-27 23:00 | -15.87911 | -47.91573 | 3457 ft | 144 kts | 265° |
| 2026-04-27 23:00 | -15.87965 | -47.92424 | 3477 ft | 88 kts | 266° |
| 2026-04-27 23:00 | -15.87995 | -47.92901 | 3480 ft | 46 kts | 266° |
| 2026-04-27 23:01 | -15.88006 | -47.93209 | 3488 ft | 40 kts | 279° |
| 2026-04-27 23:01 | -15.87879 | -47.93373 | 3502 ft | 26 kts | 13° |
| 2026-04-27 23:01 | -15.87833 | -47.93214 | 3487 ft | 24 kts | 87° |
| 2026-04-27 23:01 | -15.87824 | -47.93047 | 3482 ft | 23 kts | 86° |
| 2026-04-27 23:02 | -15.87813 | -47.92886 | 3481 ft | 22 kts | 86° |
| 2026-04-27 23:02 | -15.87804 | -47.92729 | 3477 ft | 21 kts | 86° |
| 2026-04-27 23:02 | -15.87795 | -47.92577 | 3475 ft | 21 kts | 85° |
| 2026-04-27 23:02 | -15.87784 | -47.92429 | 3475 ft | 20 kts | 86° |
| 2026-04-27 23:03 | -15.87777 | -47.92286 | 3473 ft | 20 kts | 87° |
| 2026-04-27 23:03 | -15.87767 | -47.92147 | 3471 ft | 19 kts | 86° |
| 2026-04-27 23:03 | -15.87759 | -47.92013 | 3468 ft | 18 kts | 86° |
| 2026-04-27 23:03 | -15.87750 | -47.91884 | 3465 ft | 18 kts | 85° |
| 2026-04-27 23:04 | -15.87741 | -47.91750 | 3462 ft | 20 kts | 86° |
| 2026-04-27 23:04 | -15.87686 | -47.91644 | 3461 ft | 18 kts | 4° |
| 2026-04-27 23:04 | -15.87554 | -47.91652 | 3463 ft | 21 kts | 356° |
| 2026-04-27 23:04 | -15.87362 | -47.91665 | 3463 ft | 26 kts | 356° |
| 2026-04-27 23:05 | -15.87316 | -47.91711 | 3425 ft | 11 kts | 269° |
| 2026-04-27 23:05 | -15.87284 | -47.91756 | 3464 ft | 5 kts | 0° |
| 2026-04-27 23:05 | -15.87264 | -47.91756 | 3462 ft | 1 kts | 356° |
| 2026-04-27 23:05 | -15.87263 | -47.91757 | 3462 ft | 0 kts | 356° |